Time;durP1;ratioP1;P1;durP2;ratioP2;P2;SDS_P1;SDS_P2;PMS_P1;PMS_P2;Temp;Humidity;BMP_temperature;BMP_pressure;BME280_temperature;BME280_humidity;BME280_pressure;Samples;Min_cycle;Max_cycle;Signal;HPM_P1;HPM_P2
2023/09/03 00:00:28;;;;;;;19.67;10.90;;;;;;;15.85;100.00;97211.13;5059314;28;20472;-69
2023/09/03 00:02:54;;;;;;;15.27;8.38;;;;;;;15.94;100.00;97216.31;5061663;28;20045;-71
2023/09/03 00:05:20;;;;;;;9.32;5.88;;;;;;;16.01;100.00;97219.88;5061417;28;20082;-71
2023/09/03 00:07:45;;;;;;;11.27;5.18;;;;;;;16.02;100.00;97209.59;5073157;28;20096;-70
2023/09/03 00:10:11;;;;;;;9.90;4.90;;;;;;;16.02;100.00;97212.38;5079527;28;20638;-69
2023/09/03 00:12:37;;;;;;;9.15;5.45;;;;;;;16.09;100.00;97223.44;5064726;28;20043;-69
2023/09/03 00:15:03;;;;;;;7.55;5.13;;;;;;;16.07;100.00;97220.28;5064424;28;20105;-70
2023/09/03 00:17:28;;;;;;;6.80;4.88;;;;;;;15.86;100.00;97230.09;5064430;28;20045;-70
2023/09/03 00:19:54;;;;;;;8.32;5.07;;;;;;;15.69;100.00;97228.00;5071077;28;20064;-71
2023/09/03 00:22:19;;;;;;;10.48;5.30;;;;;;;15.63;100.00;97222.06;5065333;28;20087;-70
2023/09/03 00:24:45;;;;;;;12.05;6.63;;;;;;;15.67;100.00;97230.38;5073036;28;20041;-70
2023/09/03 00:27:10;;;;;;;9.55;6.20;;;;;;;15.70;100.00;97220.50;5060648;28;20044;-69
2023/09/03 00:29:36;;;;;;;8.80;4.72;;;;;;;15.67;100.00;97222.06;5064949;28;20043;-71
2023/09/03 00:32:03;;;;;;;11.00;6.25;;;;;;;15.76;100.00;97214.25;5065487;28;20500;-70
2023/09/03 00:34:28;;;;;;;14.77;5.70;;;;;;;15.76;100.00;97219.00;5062956;28;20132;-70
2023/09/03 00:36:53;;;;;;;7.47;5.10;;;;;;;15.74;100.00;97219.38;5048314;28;20135;-70
2023/09/03 00:39:19;;;;;;;9.25;4.70;;;;;;;15.69;100.00;97219.72;5059247;28;20450;-70
2023/09/03 00:41:45;;;;;;;8.43;4.95;;;;;;;15.68;100.00;97218.94;5063959;28;20039;-71
2023/09/03 00:44:11;;;;;;;5.65;4.50;;;;;;;15.61;100.00;97223.63;5060524;28;20064;-69
2023/09/03 00:46:37;;;;;;;6.70;4.45;;;;;;;15.46;100.00;97226.31;5064809;28;20049;-71
2023/09/03 00:49:02;;;;;;;10.55;4.53;;;;;;;15.34;100.00;97226.66;5046289;28;20044;-71
2023/09/03 00:51:28;;;;;;;9.82;6.40;;;;;;;15.38;100.00;97223.91;5042912;28;20258;-71
2023/09/03 00:53:56;;;;;;;7.30;5.63;;;;;;;15.53;100.00;97231.06;5046150;28;20102;-70
2023/09/03 00:56:21;;;;;;;7.97;5.18;;;;;;;15.56;100.00;97224.00;5060158;28;20040;-71
2023/09/03 00:58:47;;;;;;;9.70;4.68;;;;;;;15.53;100.00;97227.53;5046414;28;20040;-71
2023/09/03 01:01:13;;;;;;;8.38;4.60;;;;;;;15.56;100.00;97226.78;5059077;28;20033;-71
2023/09/03 01:03:39;;;;;;;7.07;4.63;;;;;;;15.47;100.00;97229.88;5066250;28;20040;-71
2023/09/03 01:06:06;;;;;;;8.77;5.30;;;;;;;15.07;100.00;97237.91;5061175;28;20032;-70
2023/09/03 01:08:32;;;;;;;7.85;5.13;;;;;;;14.86;100.00;97235.75;5065233;28;20520;-70
2023/09/03 01:11:23;;;;;;;11.43;5.57;;;;;;;14.75;100.00;97234.88;5066433;28;20132;-69
2023/09/03 01:13:52;;;;;;;7.10;4.57;;;;;;;14.91;100.00;97235.41;5069671;28;20024;-71
2023/09/03 01:16:27;;;;;;;;;;;;;;;14.98;100.00;97242.97;5047262;28;20098;-72
2023/09/03 01:18:56;;;;;;;9.90;5.22;;;;;;;15.10;100.00;97241.84;5066119;28;19912;-72
2023/09/03 01:21:59;;;;;;;8.73;4.70;;;;;;;15.18;100.00;97237.97;5062924;28;21542;-72
2023/09/03 01:24:52;;;;;;;8.45;4.45;;;;;;;15.19;100.00;97252.56;5065421;28;20083;-70
2023/09/03 01:27:31;;;;;;;10.00;4.35;;;;;;;15.25;100.00;97249.06;5063885;28;20044;-71
2023/09/03 01:29:59;;;;;;;12.75;4.15;;;;;;;15.26;100.00;97249.84;5067362;28;20067;-70
2023/09/03 01:32:25;;;;;;;5.85;4.00;;;;;;;15.20;100.00;97245.88;5059864;28;20062;-70
2023/09/03 01:34:52;;;;;;;12.20;4.30;;;;;;;15.12;100.00;97255.25;5067008;28;20040;-71
2023/09/03 01:37:18;;;;;;;5.13;3.50;;;;;;;15.07;100.00;97257.22;5045947;28;20037;-72
2023/09/03 01:39:45;;;;;;;7.32;3.80;;;;;;;15.16;100.00;97264.34;5066207;28;20128;-71
2023/09/03 01:42:10;;;;;;;10.35;3.85;;;;;;;15.26;100.00;97263.63;5059431;28;20094;-70
2023/09/03 01:44:37;;;;;;;6.40;4.13;;;;;;;15.29;100.00;97269.19;5064670;28;20044;-72
2023/09/03 01:47:30;;;;;;;8.18;4.30;;;;;;;15.19;100.00;97269.09;5064889;28;20139;-70
2023/09/03 01:50:08;;;;;;;6.82;4.25;;;;;;;14.99;100.00;97271.31;5067509;28;20047;-73
2023/09/03 01:52:56;;;;;;;10.00;4.43;;;;;;;14.81;100.00;97279.44;5065592;28;20114;-72
2023/09/03 01:55:22;;;;;;;6.93;3.95;;;;;;;14.86;100.00;97284.63;5062378;28;20093;-70
2023/09/03 01:57:53;;;;;;;7.05;4.00;;;;;;;14.97;100.00;97276.44;5064186;28;20489;-72
2023/09/03 02:00:20;;;;;;;9.65;4.22;;;;;;;14.98;100.00;97278.81;5042936;28;20044;-72
2023/09/03 02:02:48;;;;;;;10.02;4.07;;;;;;;14.98;100.00;97278.00;5066213;28;20045;-70
2023/09/03 02:05:14;;;;;;;9.25;4.15;;;;;;;14.96;100.00;97281.13;5075980;28;20028;-71
2023/09/03 02:07:41;;;;;;;6.18;4.03;;;;;;;14.87;100.00;97284.25;5086791;28;20040;-70
2023/09/03 02:10:07;;;;;;;6.03;4.15;;;;;;;14.89;100.00;97283.84;5077212;28;20032;-70
2023/09/03 02:12:33;;;;;;;5.53;3.50;;;;;;;14.87;100.00;97288.94;5063496;28;20117;-71
2023/09/03 02:14:58;;;;;;;8.95;3.75;;;;;;;14.85;100.00;97283.81;5064243;28;20461;-70
2023/09/03 02:17:24;;;;;;;6.22;3.75;;;;;;;14.88;100.00;97285.03;5042255;28;20151;-71
2023/09/03 02:19:51;;;;;;;8.40;4.47;;;;;;;14.87;100.00;97277.91;5067095;28;20037;-71
2023/09/03 02:22:17;;;;;;;8.48;3.85;;;;;;;14.93;100.00;97281.09;5080171;28;20051;-70
2023/09/03 02:24:43;;;;;;;8.82;4.00;;;;;;;14.76;100.00;97291.59;5066921;28;20036;-69
2023/09/03 02:27:09;;;;;;;8.15;3.80;;;;;;;14.76;100.00;97299.09;5059653;28;20068;-71
2023/09/03 02:29:35;;;;;;;12.02;3.75;;;;;;;14.71;100.00;97305.72;5063909;28;20327;-72
2023/09/03 02:32:01;;;;;;;5.72;3.72;;;;;;;14.69;100.00;97297.03;5065268;28;20044;-72
2023/09/03 02:34:26;;;;;;;5.75;3.50;;;;;;;14.71;100.00;97311.25;5042530;28;20071;-71
2023/09/03 02:36:52;;;;;;;7.82;3.95;;;;;;;14.71;100.00;97298.28;5044387;28;20056;-71
2023/09/03 02:39:17;;;;;;;6.88;3.78;;;;;;;14.77;100.00;97308.97;5059049;28;20048;-71
2023/09/03 02:41:43;;;;;;;6.30;3.70;;;;;;;14.82;100.00;97306.66;5044980;28;20511;-70
2023/09/03 02:44:09;;;;;;;4.28;3.00;;;;;;;14.82;100.00;97311.34;5039519;28;20037;-71
2023/09/03 02:46:35;;;;;;;5.28;3.33;;;;;;;14.71;100.00;97306.53;5046302;28;20374;-72
2023/09/03 02:49:01;;;;;;;6.68;3.70;;;;;;;14.43;100.00;97304.25;5063222;28;20032;-71
2023/09/03 02:51:28;;;;;;;5.47;3.03;;;;;;;14.43;100.00;97312.50;5040818;28;20106;-72
2023/09/03 02:53:56;;;;;;;5.38;3.60;;;;;;;14.49;100.00;97307.44;5046502;28;20123;-73
2023/09/03 02:56:22;;;;;;;9.52;3.80;;;;;;;14.55;100.00;97316.97;5040213;28;20056;-71
2023/09/03 02:58:49;;;;;;;8.32;4.28;;;;;;;14.48;100.00;97319.66;5069434;28;20074;-72
2023/09/03 03:01:16;;;;;;;5.80;3.95;;;;;;;14.21;100.00;97322.50;5067826;28;20045;-73
2023/09/03 03:03:42;;;;;;;5.22;3.50;;;;;;;14.10;100.00;97310.56;5044402;28;20138;-71
2023/09/03 03:06:08;;;;;;;8.02;3.80;;;;;;;14.16;100.00;97314.56;5040448;28;20040;-71
2023/09/03 03:08:33;;;;;;;7.03;4.18;;;;;;;14.28;100.00;97310.78;5062837;28;20152;-72
2023/09/03 03:11:12;;;;;;;6.53;4.10;;;;;;;14.34;100.00;97301.78;5045349;28;20036;-71
2023/09/03 03:13:39;;;;;;;10.07;4.35;;;;;;;14.39;100.00;97314.44;5062643;28;20389;-71
2023/09/03 03:16:09;;;;;;;6.15;3.97;;;;;;;14.38;100.00;97314.81;5057541;28;20040;-74
2023/09/03 03:18:36;;;;;;;9.35;4.00;;;;;;;14.14;100.00;97322.41;5045730;28;20131;-71
2023/09/03 03:21:10;;;;;;;5.75;3.92;;;;;;;14.11;100.00;97325.91;5061262;28;20047;-72
2023/09/03 03:23:37;;;;;;;8.52;4.20;;;;;;;14.12;100.00;97313.75;5062676;28;20055;-71
2023/09/03 03:26:03;;;;;;;8.07;4.05;;;;;;;14.14;100.00;97314.16;5060291;28;20044;-72
2023/09/03 03:28:34;;;;;;;6.13;4.07;;;;;;;14.02;100.00;97319.91;5069968;28;20471;-72
2023/09/03 03:31:14;;;;;;;5.53;3.60;;;;;;;13.97;100.00;97326.53;5045255;28;20064;-72
2023/09/03 03:33:40;;;;;;;7.32;3.67;;;;;;;13.77;100.00;97320.34;5062156;28;20158;-72
2023/09/03 03:36:07;;;;;;;5.68;3.70;;;;;;;13.58;100.00;97313.81;5056986;28;20047;-71
2023/09/03 03:38:33;;;;;;;6.68;3.97;;;;;;;13.77;100.00;97312.09;5063785;28;20046;-72
2023/09/03 03:41:18;;;;;;;6.93;3.80;;;;;;;13.87;100.00;97310.66;5065462;28;20064;-71
2023/09/03 03:43:46;;;;;;;5.88;3.47;;;;;;;13.81;100.00;97312.97;5066067;28;20037;-69
2023/09/03 03:46:14;;;;;;;4.82;3.50;;;;;;;13.75;100.00;97312.47;5061573;28;20379;-70
2023/09/03 03:48:39;;;;;;;6.88;4.28;;;;;;;13.66;100.00;97313.91;5048584;28;20481;-71
2023/09/03 03:51:05;;;;;;;5.30;3.35;;;;;;;13.68;100.00;97317.88;5059938;28;20047;-70
2023/09/03 03:53:31;;;;;;;5.22;3.40;;;;;;;13.78;100.00;97319.19;5066029;28;20069;-71
2023/09/03 03:56:05;;;;;;;6.95;3.33;;;;;;;13.84;100.00;97311.41;5064873;28;20040;-71
2023/09/03 03:58:34;;;;;;;5.53;3.70;;;;;;;13.91;100.00;97330.78;5065191;28;20516;-70
2023/09/03 04:00:59;;;;;;;7.53;3.45;;;;;;;13.98;100.00;97333.63;5067020;28;20039;-71
2023/09/03 04:03:29;;;;;;;5.50;3.22;;;;;;;13.93;100.00;97336.69;5060779;28;20533;-71
2023/09/03 04:06:00;;;;;;;7.35;3.25;;;;;;;13.88;100.00;97348.84;5061830;28;20430;-72
2023/09/03 04:08:32;;;;;;;11.30;4.13;;;;;;;13.85;100.00;97349.59;5042929;28;20036;-71
2023/09/03 04:11:05;;;;;;;7.32;3.58;;;;;;;13.85;100.00;97354.31;5069732;28;20048;-72
2023/09/03 04:13:32;;;;;;;8.80;3.58;;;;;;;13.75;100.00;97355.72;5067879;28;20050;-70
2023/09/03 04:15:58;;;;;;;6.82;3.60;;;;;;;13.82;100.00;97352.28;5067964;28;20115;-72
2023/09/03 04:18:26;;;;;;;7.53;3.47;;;;;;;13.87;100.00;97358.25;5063557;28;20622;-71
2023/09/03 04:20:57;;;;;;;6.93;3.35;;;;;;;13.82;100.00;97357.78;5064979;28;20090;-72
2023/09/03 04:23:24;;;;;;;5.65;3.17;;;;;;;13.60;100.00;97360.25;5060766;28;20645;-70
2023/09/03 04:25:51;;;;;;;6.72;3.28;;;;;;;13.39;100.00;97361.47;5063241;28;20044;-70
2023/09/03 04:28:17;;;;;;;7.22;4.00;;;;;;;13.27;100.00;97355.34;5060647;28;20047;-71
2023/09/03 04:30:43;;;;;;;5.85;3.38;;;;;;;13.06;100.00;97359.34;5064829;28;20138;-71
2023/09/03 04:33:09;;;;;;;6.13;3.70;;;;;;;12.95;100.00;97353.66;5060663;28;20076;-70
2023/09/03 04:35:34;;;;;;;5.38;3.33;;;;;;;13.03;100.00;97357.31;5084364;28;20048;-70
2023/09/03 04:38:00;;;;;;;5.45;3.20;;;;;;;13.19;100.00;97352.50;5074049;28;20162;-70
2023/09/03 04:40:26;;;;;;;5.57;3.00;;;;;;;13.28;100.00;97356.94;5060353;28;20059;-71
2023/09/03 04:42:51;;;;;;;6.13;3.47;;;;;;;13.15;100.00;97354.38;5065735;28;20140;-70
2023/09/03 04:45:17;;;;;;;6.90;4.05;;;;;;;13.07;100.00;97352.69;5059729;28;20056;-70
2023/09/03 04:47:43;;;;;;;6.95;4.00;;;;;;;13.04;100.00;97366.38;5065765;28;20794;-69
2023/09/03 04:50:09;;;;;;;6.22;3.53;;;;;;;12.97;100.00;97370.59;5059865;28;20040;-71
2023/09/03 04:52:35;;;;;;;5.88;3.67;;;;;;;13.00;100.00;97378.13;5064515;28;20494;-71
2023/09/03 04:55:02;;;;;;;9.55;4.13;;;;;;;13.30;100.00;97379.38;5065123;28;20543;-69
2023/09/03 04:57:28;;;;;;;5.40;3.42;;;;;;;13.37;100.00;97376.78;5027525;28;20070;-69
2023/09/03 04:59:53;;;;;;;9.43;3.60;;;;;;;13.44;100.00;97370.59;5050256;28;20048;-70
2023/09/03 05:02:19;;;;;;;6.43;3.78;;;;;;;13.51;100.00;97373.47;5060737;28;20504;-70
2023/09/03 05:04:44;;;;;;;5.30;3.75;;;;;;;13.58;100.00;97371.63;5046062;28;20040;-70
2023/09/03 05:07:09;;;;;;;6.32;3.38;;;;;;;13.64;100.00;97371.31;5060028;28;20452;-71
2023/09/03 05:09:35;;;;;;;4.25;3.35;;;;;;;13.86;100.00;97380.66;5047148;28;20051;-70
2023/09/03 05:12:00;;;;;;;5.70;3.20;;;;;;;14.07;100.00;97388.44;5065715;28;20477;-72
2023/09/03 05:14:26;;;;;;;11.15;4.00;;;;;;;14.16;100.00;97391.69;5058852;28;20105;-72
2023/09/03 05:16:51;;;;;;;8.25;3.30;;;;;;;14.12;100.00;97391.66;5065637;28;20131;-71
2023/09/03 05:19:17;;;;;;;4.60;2.70;;;;;;;14.01;100.00;97401.75;5059249;28;20101;-70
2023/09/03 05:21:42;;;;;;;5.82;3.22;;;;;;;13.76;100.00;97401.38;5065258;28;20041;-70
2023/09/03 05:24:08;;;;;;;5.95;3.08;;;;;;;14.15;100.00;97404.69;5060619;28;20047;-71
2023/09/03 05:26:34;;;;;;;7.00;3.63;;;;;;;14.75;100.00;97407.78;5059218;28;20607;-70
2023/09/03 05:28:59;;;;;;;6.38;3.47;;;;;;;15.19;100.00;97402.34;5064615;28;20045;-72
2023/09/03 05:31:25;;;;;;;7.25;3.35;;;;;;;15.59;100.00;97409.00;5059434;28;20136;-70
2023/09/03 05:33:50;;;;;;;4.32;2.65;;;;;;;16.10;100.00;97409.34;5062485;28;20083;-70
2023/09/03 05:36:16;;;;;;;5.60;2.80;;;;;;;16.62;100.00;97415.56;5059827;28;20040;-71
2023/09/03 05:38:42;;;;;;;6.53;3.08;;;;;;;17.19;100.00;97414.94;5046600;28;20131;-72
2023/09/03 05:41:09;;;;;;;6.18;3.00;;;;;;;17.87;100.00;97417.75;5061099;28;20041;-71
2023/09/03 05:43:36;;;;;;;7.95;2.88;;;;;;;18.69;100.00;97418.72;5069247;28;20052;-71
2023/09/03 05:46:02;;;;;;;8.43;2.88;;;;;;;19.29;100.00;97431.53;5040434;28;20047;-73
2023/09/03 05:48:28;;;;;;;5.78;3.00;;;;;;;20.08;100.00;97440.44;5059273;28;20120;-71
2023/09/03 05:51:03;;;;;;;4.70;2.45;;;;;;;20.51;100.00;97442.78;5063486;28;20124;-72
2023/09/03 05:53:33;;;;;;;4.97;2.63;;;;;;;20.73;96.23;97451.72;5062092;28;20037;-70
2023/09/03 05:56:05;;;;;;;9.02;3.10;;;;;;;20.85;95.09;97447.59;5063800;28;20036;-72
2023/09/03 05:58:32;;;;;;;4.15;2.85;;;;;;;21.19;93.78;97459.47;5061134;28;20046;-72
2023/09/03 06:00:58;;;;;;;6.05;2.60;;;;;;;21.61;90.35;97458.50;5063016;28;20409;-71
2023/09/03 06:03:24;;;;;;;4.10;2.30;;;;;;;22.14;85.39;97463.19;5040994;28;20562;-73
2023/09/03 06:05:49;;;;;;;5.40;2.72;;;;;;;22.50;82.08;97470.94;5062845;28;20043;-72
2023/09/03 06:08:15;;;;;;;5.03;2.60;;;;;;;22.88;79.44;97490.16;5055713;28;20051;-71
2023/09/03 06:10:41;;;;;;;5.97;2.72;;;;;;;23.19;75.63;97477.97;5063366;28;20362;-72
2023/09/03 06:13:06;;;;;;;5.75;2.28;;;;;;;23.40;74.32;97490.72;5058841;28;20071;-72
2023/09/03 06:15:32;;;;;;;4.97;2.40;;;;;;;24.04;71.58;97492.03;5063455;28;20139;-72
2023/09/03 06:17:59;;;;;;;4.47;2.40;;;;;;;23.94;68.93;97500.69;5063970;28;20036;-73
2023/09/03 06:20:25;;;;;;;4.22;2.58;;;;;;;23.54;71.52;97504.38;5058959;28;20041;-71
2023/09/03 06:22:50;;;;;;;4.45;2.85;;;;;;;23.16;74.56;97513.19;5028341;28;20070;-72
2023/09/03 06:25:17;;;;;;;8.63;2.60;;;;;;;22.47;82.06;97510.09;5040186;28;20068;-70
2023/09/03 06:27:43;;;;;;;6.55;2.70;;;;;;;21.11;91.96;97512.91;5045517;28;20036;-71
2023/09/03 06:30:09;;;;;;;6.70;2.78;;;;;;;20.87;96.25;97523.13;5058095;28;20102;-70
2023/09/03 06:32:36;;;;;;;6.57;2.90;;;;;;;21.06;94.69;97524.50;5062180;28;20049;-70
2023/09/03 06:35:03;;;;;;;4.45;2.85;;;;;;;22.15;88.86;97519.78;5044799;28;20209;-71
2023/09/03 06:37:28;;;;;;;5.22;2.95;;;;;;;22.59;84.55;97531.03;5060492;28;20041;-72
2023/09/03 06:39:54;;;;;;;7.03;2.55;;;;;;;23.15;82.81;97539.53;5044967;28;20136;-71
2023/09/03 06:42:19;;;;;;;6.15;2.08;;;;;;;25.11;72.46;97554.84;5057299;28;20044;-70
2023/09/03 06:44:44;;;;;;;4.00;2.35;;;;;;;26.59;62.79;97567.19;5044881;28;20044;-70
2023/09/03 06:47:10;;;;;;;5.53;2.58;;;;;;;26.48;59.92;97564.75;5055906;28;20044;-70
2023/09/03 06:49:35;;;;;;;8.63;2.60;;;;;;;24.05;68.90;97559.97;5062653;28;20040;-71
2023/09/03 06:52:00;;;;;;;6.53;2.72;;;;;;;22.70;83.26;97549.13;5070800;28;20113;-72
2023/09/03 06:54:26;;;;;;;5.38;2.78;;;;;;;23.43;82.10;97554.94;5058390;28;20075;-73
2023/09/03 06:56:51;;;;;;;5.03;2.70;;;;;;;23.31;80.74;97555.59;5063564;28;20048;-72
2023/09/03 06:59:19;;;;;;;4.80;2.95;;;;;;;22.78;80.63;97549.81;5059986;28;20036;-71
2023/09/03 07:01:44;;;;;;;5.78;2.95;;;;;;;21.70;92.04;97548.75;5063896;28;20080;-71
2023/09/03 07:04:09;;;;;;;5.88;3.05;;;;;;;22.67;88.32;97544.44;5042104;28;20032;-71
2023/09/03 07:06:35;;;;;;;5.40;2.90;;;;;;;23.94;76.20;97553.84;5063782;28;20513;-71
2023/09/03 07:09:00;;;;;;;4.80;2.78;;;;;;;25.55;66.52;97563.63;5063408;28;20052;-72
2023/09/03 07:11:26;;;;;;;5.03;3.20;;;;;;;24.68;67.97;97558.81;5057570;28;20385;-70
2023/09/03 07:13:51;;;;;;;7.32;3.80;;;;;;;24.26;71.60;97552.28;5063809;28;20105;-72
2023/09/03 07:16:16;;;;;;;9.85;3.30;;;;;;;23.50;75.23;97550.38;5064869;28;20501;-70
2023/09/03 07:18:42;;;;;;;5.82;3.30;;;;;;;22.88;82.02;97550.81;5070030;28;20116;-71
2023/09/03 07:21:07;;;;;;;6.00;2.83;;;;;;;24.76;73.96;97557.41;5060676;28;20044;-71
2023/09/03 07:23:33;;;;;;;7.35;3.80;;;;;;;23.67;77.25;97554.81;5061703;28;20045;-72
2023/09/03 07:26:08;;;;;;;7.82;3.83;;;;;;;23.58;75.83;97560.22;5063153;28;20066;-72
2023/09/03 07:28:33;;;;;;;6.15;3.45;;;;;;;24.79;71.69;97567.75;5065452;28;20497;-71
2023/09/03 07:30:59;;;;;;;7.82;3.60;;;;;;;27.04;60.17;97566.84;5047753;28;20102;-72
2023/09/03 07:33:24;;;;;;;5.65;3.30;;;;;;;27.94;55.77;97560.72;5041112;28;20041;-72
2023/09/03 07:35:50;;;;;;;6.15;3.17;;;;;;;26.62;59.51;97555.09;5063110;28;20052;-72
2023/09/03 07:38:15;;;;;;;8.00;3.58;;;;;;;28.39;54.53;97569.78;5059449;28;20167;-72
2023/09/03 07:40:41;;;;;;;5.50;3.00;;;;;;;29.69;49.18;97577.03;5063814;28;20041;-72
2023/09/03 07:43:06;;;;;;;4.35;3.08;;;;;;;28.91;51.54;97572.88;5057913;28;20032;-72
2023/09/03 07:45:32;;;;;;;7.30;3.55;;;;;;;29.95;47.68;97581.53;5063242;28;20041;-71
2023/09/03 07:47:57;;;;;;;6.45;3.85;;;;;;;28.46;50.14;97582.78;5062774;28;20428;-71
2023/09/03 07:50:23;;;;;;;10.93;3.30;;;;;;;28.10;53.93;97575.81;5061602;28;20125;-72
2023/09/03 07:52:48;;;;;;;7.50;3.28;;;;;;;26.87;58.00;97574.69;5070699;28;20115;-72
2023/09/03 07:55:15;;;;;;;7.07;4.22;;;;;;;27.67;54.67;97575.41;5070268;28;20044;-72
2023/09/03 07:57:40;;;;;;;6.00;4.00;;;;;;;26.68;60.15;97576.53;5079367;28;20120;-72
2023/09/03 08:00:06;;;;;;;6.45;3.85;;;;;;;26.94;60.13;97573.66;5064749;28;20059;-71
2023/09/03 08:02:32;;;;;;;6.85;4.00;;;;;;;27.88;55.91;97576.63;5073936;28;20110;-70
2023/09/03 08:04:57;;;;;;;7.18;3.92;;;;;;;27.72;55.28;97583.25;5050895;28;20049;-71
2023/09/03 08:07:24;;;;;;;9.82;3.92;;;;;;;27.53;56.60;97573.13;5028717;28;20174;-72
2023/09/03 08:09:50;;;;;;;7.05;3.50;;;;;;;28.64;54.33;97577.22;5044459;28;20108;-71
2023/09/03 08:12:15;;;;;;;5.65;3.50;;;;;;;29.12;51.77;97576.78;5038601;28;20044;-72
2023/09/03 08:14:43;;;;;;;7.45;3.72;;;;;;;27.70;54.53;97568.88;5009068;28;20043;-73
2023/09/03 08:17:09;;;;;;;5.32;3.40;;;;;;;27.92;56.81;97571.66;5021053;28;20624;-72
2023/09/03 08:19:35;;;;;;;6.70;3.83;;;;;;;28.34;55.63;97571.19;5045006;28;20140;-71
2023/09/03 08:22:00;;;;;;;6.38;3.25;;;;;;;27.93;56.52;97575.25;5042541;28;20064;-71
2023/09/03 08:24:29;;;;;;;5.72;3.70;;;;;;;27.92;56.25;97588.53;5034554;28;20521;-71
2023/09/03 08:26:55;;;;;;;6.17;3.77;;;;;;;28.09;56.60;97591.91;5034023;28;20045;-72
2023/09/03 08:29:20;;;;;;;9.07;3.95;;;;;;;27.49;58.26;97592.97;5044192;28;20036;-71
2023/09/03 08:31:46;;;;;;;8.30;3.90;;;;;;;27.42;58.39;97593.22;5068889;28;20045;-70
2023/09/03 08:34:11;;;;;;;7.45;3.90;;;;;;;27.50;58.60;97603.00;5060690;28;20265;-71
2023/09/03 08:36:36;;;;;;;7.47;3.70;;;;;;;27.40;59.89;97593.69;5066668;28;20075;-71
2023/09/03 08:39:02;;;;;;;6.40;3.65;;;;;;;27.01;62.10;97590.25;5065452;28;20699;-72
2023/09/03 08:41:30;;;;;;;4.85;3.70;;;;;;;27.77;59.11;97595.97;5062608;28;20447;-71
2023/09/03 08:44:06;;;;;;;8.02;4.22;;;;;;;27.59;58.75;97596.66;5047865;28;20135;-72
2023/09/03 08:46:34;;;;;;;5.80;3.63;;;;;;;27.01;61.68;97583.84;5065191;28;20129;-71
2023/09/03 08:48:59;;;;;;;6.72;3.72;;;;;;;27.72;59.51;97590.94;5065806;28;20489;-70
2023/09/03 08:51:26;;;;;;;8.00;4.35;;;;;;;27.20;57.71;97596.81;5026232;28;20048;-71
2023/09/03 08:53:54;;;;;;;5.88;3.80;;;;;;;26.80;63.42;97588.19;5066950;28;20078;-71
2023/09/03 08:56:20;;;;;;;8.95;4.70;;;;;;;26.39;65.47;97585.09;5060903;28;20536;-71
2023/09/03 08:58:45;;;;;;;7.93;4.35;;;;;;;26.17;66.83;97587.03;5065258;28;20075;-71
2023/09/03 09:01:13;;;;;;;5.13;3.58;;;;;;;25.73;68.38;97593.97;5069202;28;20492;-71
2023/09/03 09:03:39;;;;;;;6.57;3.90;;;;;;;25.99;70.86;97602.41;5056682;28;20040;-70
2023/09/03 09:06:07;;;;;;;7.25;4.32;;;;;;;26.08;69.44;97604.56;5059524;28;20036;-71
2023/09/03 09:08:33;;;;;;;8.35;4.35;;;;;;;25.79;70.11;97602.59;5062057;28;20131;-70
2023/09/03 09:11:04;;;;;;;8.10;4.40;;;;;;;25.47;72.60;97603.56;5064525;28;20127;-70
2023/09/03 09:13:35;;;;;;;6.43;4.05;;;;;;;25.86;70.50;97598.81;5063360;28;20478;-71
2023/09/03 09:16:01;;;;;;;7.30;4.40;;;;;;;26.14;69.10;97591.53;5053803;28;20098;-71
2023/09/03 09:18:26;;;;;;;10.23;4.28;;;;;;;26.55;66.03;97591.81;5021780;28;20049;-71
2023/09/03 09:20:57;;;;;;;6.00;3.90;;;;;;;27.07;65.21;97596.84;5048441;28;20075;-71
2023/09/03 09:23:23;;;;;;;6.13;4.10;;;;;;;27.23;62.77;97590.28;5037616;28;20228;-69
2023/09/03 09:25:48;;;;;;;7.18;3.80;;;;;;;27.35;62.86;97591.50;5066487;28;20059;-71
2023/09/03 09:28:14;;;;;;;7.00;3.95;;;;;;;27.71;60.44;97595.75;5040392;28;20114;-71
2023/09/03 09:30:56;;;;;;;8.07;3.85;;;;;;;27.95;59.96;97598.13;5065287;28;20059;-71
2023/09/03 09:33:22;;;;;;;6.95;5.40;;;;;;;28.02;59.61;97601.44;5050861;28;20445;-73
2023/09/03 09:35:47;;;;;;;5.78;3.78;;;;;;;28.75;56.89;97602.13;5045811;28;20048;-71
2023/09/03 09:38:13;;;;;;;7.57;3.78;;;;;;;28.36;57.18;97604.50;5060624;28;20040;-71
2023/09/03 09:40:38;;;;;;;5.07;3.47;;;;;;;29.16;54.81;97609.25;5064639;28;20408;-71
2023/09/03 09:43:07;;;;;;;6.25;3.42;;;;;;;29.34;54.28;97605.63;5058802;28;20040;-70
2023/09/03 09:45:44;;;;;;;5.97;3.50;;;;;;;28.95;56.20;97610.91;5045794;28;20047;-71
2023/09/03 09:48:10;;;;;;;5.72;3.83;;;;;;;28.81;54.73;97607.94;5051330;28;20044;-71
2023/09/03 09:50:40;;;;;;;7.55;3.80;;;;;;;28.00;59.00;97597.50;5058796;22;20068;-73
2023/09/03 09:53:19;;;;;;;5.65;3.55;;;;;;;28.24;57.31;97599.81;5063784;28;20108;-71
2023/09/03 09:55:45;;;;;;;12.57;4.07;;;;;;;28.89;56.17;97604.34;5064983;28;20056;-73
2023/09/03 09:58:12;;;;;;;7.20;3.47;;;;;;;28.03;59.89;97596.56;5058504;28;20040;-74
2023/09/03 10:00:41;;;;;;;6.03;3.25;;;;;;;28.72;57.54;97601.03;5066084;28;20382;-73
2023/09/03 10:03:07;;;;;;;4.70;3.37;;;;;;;29.69;53.99;97601.66;5045692;28;20473;-74
2023/09/03 10:05:34;;;;;;;7.00;3.50;;;;;;;29.72;52.63;97604.31;5049306;28;20041;-74
2023/09/03 10:08:00;;;;;;;6.32;3.72;;;;;;;29.22;55.05;97591.69;5058324;28;20071;-74
2023/09/03 10:10:25;;;;;;;6.05;3.45;;;;;;;29.30;55.15;97590.91;5052776;28;20489;-74
2023/09/03 10:12:51;;;;;;;5.47;3.50;;;;;;;29.01;54.53;97594.19;5040766;28;20052;-74
2023/09/03 10:15:17;;;;;;;8.15;3.40;;;;;;;29.46;54.22;97589.78;5051049;28;20068;-73
2023/09/03 10:17:48;;;;;;;8.75;3.60;;;;;;;29.44;55.12;97588.69;5062531;28;20386;-74
2023/09/03 10:20:19;;;;;;;6.25;3.80;;;;;;;29.15;54.75;97585.13;5055282;28;20435;-74
2023/09/03 10:22:48;;;;;;;6.35;3.65;;;;;;;28.81;56.04;97582.56;5050550;28;20041;-74
2023/09/03 10:25:18;;;;;;;6.78;3.72;;;;;;;29.13;56.92;97586.81;5034423;28;20048;-73
2023/09/03 10:27:50;;;;;;;7.32;3.88;;;;;;;28.84;57.06;97584.44;5040838;28;20044;-74
2023/09/03 10:30:23;;;;;;;6.68;3.42;;;;;;;28.53;58.14;97588.13;5052322;28;20045;-75
2023/09/03 10:32:51;;;;;;;5.03;3.25;;;;;;;29.18;56.17;97591.84;5049455;28;20053;-73
2023/09/03 10:35:17;;;;;;;7.20;3.85;;;;;;;29.48;55.15;97592.91;5037257;28;20643;-76
2023/09/03 10:37:43;;;;;;;6.07;4.07;;;;;;;29.48;54.80;97594.97;5061339;28;20135;-75
2023/09/03 10:40:25;;;;;;;6.60;3.97;;;;;;;28.71;56.81;97595.88;5038801;28;20055;-71
2023/09/03 10:42:53;;;;;;;10.48;4.38;;;;;;;27.81;60.58;97591.75;5050128;28;20100;-75
2023/09/03 10:45:18;;;;;;;5.05;3.67;;;;;;;28.20;60.55;97597.13;5041574;28;20151;-76
2023/09/03 10:48:05;;;;;;;6.38;3.78;;;;;;;28.39;60.81;97589.50;5048593;28;20420;-76
2023/09/03 10:50:43;;;;;;;6.85;4.03;;;;;;;28.08;61.81;97586.75;5059886;28;20050;-75
2023/09/03 10:53:29;;;;;;;6.50;3.45;;;;;;;27.87;63.35;97580.66;5057106;28;20052;-67
2023/09/03 10:56:14;;;;;;;7.38;3.60;;;;;;;28.93;58.68;97587.28;5039762;28;20138;-73
2023/09/03 10:58:55;;;;;;;5.82;3.58;;;;;;;28.82;60.01;97589.78;5053608;28;20040;-75
2023/09/03 11:01:31;;;;;;;7.32;3.85;;;;;;;29.32;56.30;97590.44;5038409;28;20041;-75
2023/09/03 11:04:04;;;;;;;7.05;4.20;;;;;;;28.05;59.15;97584.84;5038755;28;20052;-74
2023/09/03 11:06:31;;;;;;;6.80;3.53;;;;;;;28.30;60.10;97583.84;5051188;28;20049;-76
2023/09/03 11:08:59;;;;;;;6.68;4.05;;;;;;;28.93;58.89;97588.03;5055917;28;20386;-76
2023/09/03 11:11:30;;;;;;;7.57;3.88;;;;;;;29.16;57.58;97594.34;5036745;28;20383;-75
2023/09/03 11:13:56;;;;;;;10.50;3.72;;;;;;;29.05;58.54;97591.97;5041320;28;20493;-75
2023/09/03 11:16:29;;;;;;;4.80;3.45;;;;;;;28.45;60.12;97581.22;5042162;28;20559;-76
2023/09/03 11:18:55;;;;;;;6.32;3.72;;;;;;;28.90;60.43;97576.94;5057861;28;20496;-75
2023/09/03 11:21:25;;;;;;;7.95;3.53;;;;;;;29.10;59.38;97576.44;5037007;28;20057;-74
2023/09/03 11:24:03;;;;;;;7.18;3.42;;;;;;;28.78;60.36;97576.59;5046952;28;20033;-73
2023/09/03 11:26:30;;;;;;;6.78;3.50;;;;;;;29.40;58.21;97573.97;5060249;28;20037;-73
2023/09/03 11:28:56;;;;;;;6.53;3.53;;;;;;;29.50;57.99;97575.50;5040618;28;20140;-76
2023/09/03 11:31:25;;;;;;;5.82;3.38;;;;;;;29.17;58.45;97564.88;5037048;28;20087;-75